createdAt,value
2022-12-25T00:01:11.867Z,33.20
2022-12-25T00:03:48.528Z,30.20
2022-12-25T00:06:17.618Z,30.70
2022-12-25T00:08:45.989Z,33.60
2022-12-25T00:11:20.004Z,30.20
2022-12-25T00:13:49.127Z,29.80
2022-12-25T00:16:23.263Z,27.50
2022-12-25T00:18:51.704Z,30.10
2022-12-25T00:21:21.389Z,27.00
2022-12-25T00:23:55.434Z,32.20
2022-12-25T00:26:24.652Z,33.50
2022-12-25T00:28:57.418Z,24.90
2022-12-25T00:31:26.471Z,25.80
2022-12-25T00:33:54.990Z,30.50
2022-12-25T00:36:23.936Z,30.40
2022-12-25T00:38:51.886Z,32.90
2022-12-25T00:41:43.016Z,35.50
2022-12-25T00:44:14.064Z,29.10
2022-12-25T00:46:42.993Z,24.20
2022-12-25T00:49:12.327Z,26.20
2022-12-25T00:51:40.489Z,29.40
2022-12-25T00:54:08.809Z,31.10
2022-12-25T00:56:36.707Z,31.60
2022-12-25T00:59:04.555Z,39.30
2022-12-25T01:01:33.599Z,37.90
2022-12-25T01:04:01.699Z,31.00
2022-12-25T01:06:30.189Z,32.30
2022-12-25T01:09:17.547Z,29.90
2022-12-25T01:11:45.713Z,30.90
2022-12-25T01:14:14.505Z,27.60
2022-12-25T01:16:42.742Z,29.70
2022-12-25T01:19:11.318Z,35.30
2022-12-25T01:21:39.513Z,39.00
2022-12-25T01:24:07.676Z,47.20
2022-12-25T01:26:35.470Z,42.80
2022-12-25T01:29:03.986Z,33.80
2022-12-25T01:31:31.854Z,30.50
2022-12-25T01:33:59.761Z,29.90
2022-12-25T01:36:27.656Z,27.30
2022-12-25T01:38:55.829Z,31.30
2022-12-25T01:41:25.593Z,32.90
2022-12-25T01:44:28.988Z,41.10
2022-12-25T01:46:56.763Z,46.50
2022-12-25T01:49:26.514Z,34.10
2022-12-25T01:52:05.519Z,34.10
2022-12-25T01:54:41.496Z,36.00
2022-12-25T01:57:17.143Z,39.00
2022-12-25T01:59:46.229Z,37.80
2022-12-25T02:02:14.744Z,44.90
2022-12-25T02:04:52.428Z,33.70
2022-12-25T02:07:25.050Z,29.40
2022-12-25T02:09:53.679Z,31.80
2022-12-25T02:12:26.996Z,36.90
2022-12-25T02:15:05.793Z,34.40
2022-12-25T02:17:42.886Z,37.30
2022-12-25T02:20:34.012Z,47.30
2022-12-25T02:23:58.182Z,44.30
2022-12-25T02:27:02.924Z,32.50
2022-12-25T02:29:50.884Z,31.30
2022-12-25T02:32:39.153Z,31.60
2022-12-25T02:35:25.631Z,30.30
2022-12-25T02:38:14.373Z,31.80
2022-12-25T02:40:57.476Z,27.20
2022-12-25T02:43:53.460Z,40.10
2022-12-25T02:46:43.812Z,51.40
2022-12-25T02:49:42.754Z,41.40
2022-12-25T02:52:35.347Z,31.30
2022-12-25T02:55:33.165Z,36.00
2022-12-25T02:58:27.856Z,32.60
2022-12-25T03:01:24.032Z,30.50
2022-12-25T03:04:16.872Z,31.40
2022-12-25T03:07:12.025Z,41.10
2022-12-25T03:10:06.051Z,44.50
2022-12-25T03:13:17.072Z,42.10
2022-12-25T03:16:05.255Z,36.40
2022-12-25T03:18:34.562Z,38.30
2022-12-25T03:21:21.822Z,35.70
2022-12-25T03:24:16.696Z,42.80
2022-12-25T03:26:58.113Z,38.50
2022-12-25T03:29:52.679Z,42.70
2022-12-25T03:32:41.751Z,36.50
2022-12-25T03:35:33.441Z,44.70
2022-12-25T03:38:48.348Z,46.40
2022-12-25T03:42:01.631Z,18.60
2022-12-25T03:46:02.750Z,23.60
2022-12-25T03:48:55.266Z,10.40
2022-12-25T03:51:50.001Z,29.00
2022-12-25T03:54:45.885Z,24.70
2022-12-25T03:57:33.472Z,25.30
2022-12-25T04:00:20.455Z,12.90
2022-12-25T04:03:07.133Z,10.70
2022-12-25T04:05:53.742Z,11.40
2022-12-25T04:08:40.051Z,14.80
2022-12-25T04:11:26.495Z,7.70
2022-12-25T04:14:12.912Z,23.20
2022-12-25T04:16:59.464Z,24.00
2022-12-25T04:19:53.353Z,14.90
2022-12-25T04:22:40.209Z,16.80
2022-12-25T04:25:27.075Z,13.40
2022-12-25T04:28:19.263Z,8.20
2022-12-25T04:31:06.202Z,19.60
2022-12-25T04:33:52.731Z,10.70
2022-12-25T04:36:21.758Z,14.00
2022-12-25T04:38:49.614Z,15.40
2022-12-25T04:41:17.484Z,18.00
2022-12-25T04:43:45.333Z,17.30
2022-12-25T04:46:13.203Z,12.70
2022-12-25T04:48:41.046Z,21.20
2022-12-25T04:51:22.369Z,23.20
2022-12-25T04:53:51.976Z,22.30
2022-12-25T04:56:21.353Z,19.00
2022-12-25T04:58:49.607Z,15.80
2022-12-25T05:01:17.753Z,16.70
2022-12-25T05:03:45.868Z,19.80
2022-12-25T05:06:13.833Z,21.40
2022-12-25T05:08:41.731Z,26.90
2022-12-25T05:11:13.568Z,25.20
2022-12-25T05:13:41.801Z,25.00
2022-12-25T05:16:15.371Z,25.50
2022-12-25T05:18:44.277Z,17.20
2022-12-25T05:21:12.617Z,18.00
2022-12-25T05:23:48.752Z,19.40
2022-12-25T05:26:20.485Z,19.80
2022-12-25T05:28:49.533Z,23.10
2022-12-25T05:31:19.055Z,23.70
2022-12-25T05:33:51.545Z,23.80
2022-12-25T05:36:19.665Z,22.20
2022-12-25T05:38:47.517Z,20.30
2022-12-25T05:41:15.544Z,19.00
2022-12-25T05:43:43.331Z,23.30
2022-12-25T05:46:13.929Z,20.50
2022-12-25T05:48:42.122Z,25.50
2022-12-25T05:51:14.846Z,28.40
2022-12-25T05:53:43.889Z,20.40
2022-12-25T05:56:11.997Z,22.40
2022-12-25T05:58:41.031Z,23.00
2022-12-25T06:01:17.345Z,20.50
2022-12-25T06:03:45.681Z,21.10
2022-12-25T06:06:14.386Z,19.50
2022-12-25T06:08:42.820Z,19.90
2022-12-25T06:11:13.593Z,26.00
2022-12-25T06:13:42.233Z,26.30
2022-12-25T06:16:12.381Z,28.00
2022-12-25T06:18:46.404Z,28.70
2022-12-25T06:21:16.234Z,22.80
2022-12-25T06:23:45.426Z,21.20
2022-12-25T06:26:19.547Z,19.00
2022-12-25T06:28:48.143Z,25.30
2022-12-25T06:31:20.891Z,19.50
2022-12-25T06:33:50.254Z,21.30
2022-12-25T06:36:29.601Z,31.20
2022-12-25T06:39:01.323Z,28.60
2022-12-25T06:41:30.614Z,30.40
2022-12-25T06:44:01.630Z,31.70
2022-12-25T06:46:32.128Z,27.20
2022-12-25T06:49:00.783Z,19.60
2022-12-25T06:51:32.163Z,18.10
2022-12-25T06:54:04.106Z,27.30
2022-12-25T06:56:33.833Z,45.00
2022-12-25T06:59:09.004Z,37.10
2022-12-25T07:01:51.546Z,31.30
2022-12-25T07:04:33.621Z,27.10
2022-12-25T07:07:08.386Z,25.10
2022-12-25T07:09:42.575Z,29.20
2022-12-25T07:12:21.106Z,18.90
2022-12-25T07:14:50.267Z,23.10
2022-12-25T07:17:20.464Z,31.00
2022-12-25T07:19:49.230Z,27.30
2022-12-25T07:22:17.774Z,38.20
2022-12-25T07:24:45.665Z,32.10
2022-12-25T07:27:13.492Z,29.40
2022-12-25T07:29:41.412Z,21.90
2022-12-25T07:32:09.493Z,26.50
2022-12-25T07:34:37.407Z,23.50
2022-12-25T07:37:05.272Z,22.60
2022-12-25T07:39:34.675Z,26.10
2022-12-25T07:42:02.474Z,30.20
2022-12-25T07:44:30.395Z,41.30
2022-12-25T07:46:58.206Z,33.40
2022-12-25T07:49:26.174Z,37.60
2022-12-25T07:51:54.002Z,35.60
2022-12-25T07:54:21.902Z,32.90
2022-12-25T07:56:53.706Z,36.40
2022-12-25T07:59:21.649Z,33.70
2022-12-25T08:01:50.781Z,40.40
2022-12-25T08:04:19.297Z,43.30
2022-12-25T08:06:47.347Z,40.80
2022-12-25T08:09:15.285Z,44.80
2022-12-25T08:11:47.485Z,40.20
2022-12-25T08:14:15.898Z,40.90
2022-12-25T08:16:44.752Z,45.90
2022-12-25T08:19:14.592Z,43.90
2022-12-25T08:21:42.457Z,44.10
2022-12-25T08:24:10.920Z,46.90
2022-12-25T08:26:38.744Z,45.10
2022-12-25T08:29:11.361Z,44.30
2022-12-25T08:31:46.687Z,50.80
2022-12-25T08:34:15.547Z,53.00
2022-12-25T08:36:43.651Z,43.50
2022-12-25T08:39:11.944Z,44.50
2022-12-25T08:41:40.431Z,53.60
2022-12-25T08:44:08.393Z,51.30
2022-12-25T08:46:36.880Z,45.30
2022-12-25T08:49:04.964Z,46.80
2022-12-25T08:51:32.943Z,46.80
2022-12-25T08:54:01.296Z,38.70
2022-12-25T08:56:29.626Z,51.70
2022-12-25T08:58:57.683Z,56.10
2022-12-25T09:01:25.675Z,55.70
2022-12-25T09:03:53.659Z,53.20
2022-12-25T09:06:21.505Z,48.50
2022-12-25T09:08:50.063Z,47.20
2022-12-25T09:11:20.543Z,45.30
2022-12-25T09:13:49.450Z,46.30
2022-12-25T09:16:21.797Z,48.10
2022-12-25T09:18:50.685Z,50.40
2022-12-25T09:21:19.718Z,57.20
2022-12-25T09:23:47.704Z,51.90
2022-12-25T09:26:18.533Z,52.90
2022-12-25T09:28:51.933Z,48.90
2022-12-25T09:31:22.859Z,51.40
2022-12-25T09:33:52.041Z,44.50
2022-12-25T09:36:23.441Z,52.50
2022-12-25T09:38:52.858Z,48.90
2022-12-25T09:41:34.713Z,55.60
2022-12-25T09:44:10.085Z,52.30
2022-12-25T09:46:49.134Z,46.80
2022-12-25T09:49:38.153Z,51.10
2022-12-25T09:52:31.618Z,43.10
2022-12-25T09:55:20.050Z,46.70
2022-12-25T09:57:55.914Z,49.70
2022-12-25T10:00:34.166Z,70.60
2022-12-25T10:03:23.371Z,47.90
2022-12-25T10:06:33.403Z,45.70
2022-12-25T10:09:26.444Z,47.50
2022-12-25T10:12:30.366Z,57.50
2022-12-25T10:15:26.406Z,55.90
2022-12-25T10:18:53.799Z,57.30
2022-12-25T10:21:23.929Z,58.60
2022-12-25T10:24:33.442Z,51.80
2022-12-25T10:27:08.194Z,51.80
2022-12-25T10:29:36.323Z,55.10
2022-12-25T10:32:04.641Z,56.60
2022-12-25T10:34:33.490Z,52.60
2022-12-25T10:37:02.245Z,52.90
2022-12-25T10:39:30.243Z,59.10
2022-12-25T10:42:31.114Z,57.40
2022-12-25T10:45:08.344Z,62.10
2022-12-25T10:47:42.765Z,50.50
2022-12-25T10:50:24.844Z,53.20
2022-12-25T10:53:04.910Z,46.70
2022-12-25T10:55:33.839Z,53.80
2022-12-25T10:58:02.413Z,52.50
2022-12-25T11:00:33.126Z,56.00
2022-12-25T11:03:01.560Z,54.90
2022-12-25T11:05:35.055Z,54.00
2022-12-25T11:08:04.222Z,49.90
2022-12-25T11:10:38.196Z,53.70
2022-12-25T11:13:17.715Z,55.10
2022-12-25T11:15:49.333Z,55.50
2022-12-25T11:18:29.615Z,61.20
2022-12-25T11:21:02.846Z,64.20
2022-12-25T11:23:33.239Z,62.10
2022-12-25T11:26:07.997Z,62.80
2022-12-25T11:28:46.623Z,53.80
2022-12-25T11:31:20.654Z,64.30
2022-12-25T11:34:05.640Z,56.70
2022-12-25T11:36:51.834Z,66.00
2022-12-25T11:39:28.482Z,69.50
2022-12-25T11:42:14.374Z,64.90
2022-12-25T11:44:49.682Z,58.30
2022-12-25T11:47:45.171Z,66.40
2022-12-25T11:50:21.169Z,58.70
2022-12-25T11:52:58.471Z,65.30
2022-12-25T11:55:41.543Z,58.10
2022-12-25T11:58:36.233Z,61.00
2022-12-25T12:01:34.154Z,63.10
2022-12-25T12:04:08.758Z,63.10
2022-12-25T12:07:02.027Z,59.90
2022-12-25T12:10:06.456Z,62.20
2022-12-25T12:13:10.580Z,56.20
2022-12-25T12:15:47.505Z,59.70
2022-12-25T12:18:23.599Z,55.30
2022-12-25T12:21:18.094Z,42.00
2022-12-25T12:23:47.284Z,65.50
2022-12-25T12:26:25.086Z,52.50
2022-12-25T12:28:59.485Z,58.30
2022-12-25T12:31:43.036Z,58.10
2022-12-25T12:34:34.553Z,58.40
2022-12-25T12:37:08.402Z,53.70
2022-12-25T12:39:40.857Z,61.60
2022-12-25T12:42:21.414Z,62.40
2022-12-25T12:44:50.600Z,52.40
2022-12-25T12:47:47.029Z,34.60
2022-12-25T12:50:33.165Z,50.80
2022-12-25T12:53:22.200Z,57.80
2022-12-25T12:55:52.130Z,64.50
2022-12-25T12:58:40.488Z,56.00
2022-12-25T13:01:26.655Z,57.20
2022-12-25T13:04:34.861Z,54.40
2022-12-25T13:07:24.910Z,49.80
2022-12-25T13:10:13.792Z,48.80
2022-12-25T13:12:41.930Z,55.10
2022-12-25T13:15:21.393Z,64.90
2022-12-25T13:17:50.226Z,37.20
2022-12-25T13:20:33.461Z,46.60
2022-12-25T13:23:01.400Z,53.60
2022-12-25T13:25:29.440Z,47.20
2022-12-25T13:27:59.639Z,59.70
2022-12-25T13:30:27.844Z,44.40
2022-12-25T13:33:00.282Z,51.40
2022-12-25T13:35:28.520Z,45.70
2022-12-25T13:37:56.847Z,49.30
2022-12-25T13:40:28.577Z,48.20
2022-12-25T13:43:01.912Z,47.10
2022-12-25T13:45:31.389Z,52.50
2022-12-25T13:48:15.928Z,53.60
2022-12-25T13:50:48.648Z,51.10
2022-12-25T13:53:18.192Z,57.10
2022-12-25T13:55:56.030Z,43.70
2022-12-25T13:58:31.635Z,43.90
2022-12-25T14:01:02.817Z,57.10
2022-12-25T14:03:46.217Z,48.40
2022-12-25T14:06:32.597Z,61.50
2022-12-25T14:09:00.969Z,53.90
2022-12-25T14:11:32.373Z,57.90
2022-12-25T14:14:12.350Z,54.60
2022-12-25T14:16:43.814Z,56.10
2022-12-25T14:19:29.884Z,47.70
2022-12-25T14:22:22.727Z,52.40
2022-12-25T14:24:51.255Z,58.10
2022-12-25T14:27:32.680Z,55.90
2022-12-25T14:30:01.689Z,46.00
2022-12-25T14:32:38.524Z,51.30
2022-12-25T14:35:07.175Z,44.90
2022-12-25T14:37:37.373Z,44.90
2022-12-25T14:40:26.315Z,47.30
2022-12-25T14:43:17.234Z,50.10
2022-12-25T14:45:59.981Z,44.20
2022-12-25T14:48:31.979Z,39.70
2022-12-25T14:51:04.184Z,37.80
2022-12-25T14:53:49.272Z,53.70
2022-12-25T14:56:24.603Z,44.70
2022-12-25T14:58:57.418Z,40.10
2022-12-25T15:01:36.327Z,44.80
2022-12-25T15:04:10.227Z,43.00
2022-12-25T15:07:00.040Z,36.90
2022-12-25T15:09:30.215Z,53.60
2022-12-25T15:11:58.211Z,44.90
2022-12-25T15:14:27.599Z,39.10
2022-12-25T15:17:00.708Z,46.40
2022-12-25T15:19:38.149Z,50.00
2022-12-25T15:22:07.149Z,52.60
2022-12-25T15:24:35.664Z,56.20
2022-12-25T15:27:05.490Z,65.40
2022-12-25T15:30:08.030Z,66.50
2022-12-25T15:32:24.328Z,60.60
2022-12-25T15:34:54.292Z,44.50
2022-12-25T15:37:22.144Z,53.70
2022-12-25T15:39:50.069Z,61.60
2022-12-25T15:42:23.117Z,50.40
2022-12-25T15:44:52.018Z,59.10
2022-12-25T15:47:20.374Z,62.30
2022-12-25T15:49:49.211Z,59.40
2022-12-25T15:52:18.360Z,65.70
2022-12-25T15:54:46.379Z,59.30
2022-12-25T15:57:22.476Z,64.40
2022-12-25T15:59:50.383Z,61.30
2022-12-25T16:02:21.181Z,61.20
2022-12-25T16:04:51.207Z,57.90
2022-12-25T16:07:23.637Z,64.30
2022-12-25T16:09:52.583Z,59.30
2022-12-25T16:12:20.772Z,63.70
2022-12-25T16:14:48.797Z,62.50
2022-12-25T16:17:16.850Z,63.80
2022-12-25T16:19:44.983Z,61.50
2022-12-25T16:22:18.646Z,66.40
2022-12-25T16:24:46.709Z,59.60
2022-12-25T16:27:14.916Z,72.50
2022-12-25T16:29:43.308Z,63.70
2022-12-25T16:32:13.492Z,54.10
2022-12-25T16:34:41.570Z,58.60
2022-12-25T16:37:09.502Z,57.70
2022-12-25T16:39:38.409Z,61.70
2022-12-25T16:42:06.489Z,49.80
2022-12-25T16:44:37.637Z,48.70
2022-12-25T16:47:05.816Z,56.30
2022-12-25T16:49:33.897Z,59.00
2022-12-25T16:52:02.760Z,50.20
2022-12-25T16:54:30.657Z,57.00
2022-12-25T16:56:58.546Z,55.40
2022-12-25T16:59:29.585Z,56.80
2022-12-25T17:01:57.627Z,57.30
2022-12-25T17:04:27.626Z,56.30
2022-12-25T17:06:56.371Z,60.50
2022-12-25T17:09:24.965Z,61.20
2022-12-25T17:11:53.024Z,56.30
2022-12-25T17:14:21.684Z,59.10
2022-12-25T17:16:55.023Z,68.40
2022-12-25T17:19:26.539Z,65.40
2022-12-25T17:21:57.442Z,61.60
2022-12-25T17:24:28.163Z,68.00
2022-12-25T17:26:56.202Z,70.70
2022-12-25T17:29:30.726Z,57.00
2022-12-25T17:31:58.778Z,79.20
2022-12-25T17:34:27.387Z,73.90
2022-12-25T17:36:59.213Z,68.30
2022-12-25T17:39:27.452Z,71.00
2022-12-25T17:41:55.420Z,70.30
2022-12-25T17:44:23.501Z,70.30
2022-12-25T17:46:51.762Z,56.40
2022-12-25T17:49:21.980Z,52.30
2022-12-25T17:51:50.452Z,54.90
2022-12-25T17:54:18.571Z,51.30
2022-12-25T17:56:49.629Z,64.20
2022-12-25T17:59:19.039Z,66.60
2022-12-25T18:01:48.552Z,67.50
2022-12-25T18:04:17.168Z,49.70
2022-12-25T18:06:45.835Z,47.10
2022-12-25T18:09:17.886Z,53.70
2022-12-25T18:11:46.159Z,50.30
2022-12-25T18:14:16.837Z,52.80
2022-12-25T18:16:46.165Z,57.00
2022-12-25T18:19:15.802Z,56.80
2022-12-25T18:21:44.672Z,49.70
2022-12-25T18:24:13.408Z,50.80
2022-12-25T18:26:41.375Z,61.60
2022-12-25T18:29:09.655Z,56.20
2022-12-25T18:31:37.735Z,54.00
2022-12-25T18:34:05.642Z,48.90
2022-12-25T18:36:34.148Z,50.40
2022-12-25T18:39:05.959Z,45.80
2022-12-25T18:41:54.497Z,45.00
2022-12-25T18:44:22.443Z,49.40
2022-12-25T18:46:50.383Z,54.80
2022-12-25T18:49:18.232Z,64.70
2022-12-25T18:51:46.085Z,60.80
2022-12-25T18:54:13.914Z,64.00
2022-12-25T18:56:42.026Z,57.50
2022-12-25T18:59:09.999Z,56.00
2022-12-25T19:01:39.974Z,58.10
2022-12-25T19:04:12.980Z,54.10
2022-12-25T19:06:43.780Z,55.80
2022-12-25T19:09:11.977Z,64.90
2022-12-25T19:11:46.504Z,57.90
2022-12-25T19:14:15.928Z,57.70
2022-12-25T19:16:44.903Z,64.80
2022-12-25T19:19:14.491Z,54.80
2022-12-25T19:21:42.297Z,63.50
2022-12-25T19:24:10.518Z,67.40
2022-12-25T19:26:38.815Z,51.00
2022-12-25T19:29:07.112Z,53.00
2022-12-25T19:31:35.303Z,46.40
2022-12-25T19:34:04.273Z,49.30
2022-12-25T19:36:32.767Z,55.00
2022-12-25T19:39:01.094Z,50.30
2022-12-25T19:41:29.177Z,52.70
2022-12-25T19:43:57.461Z,50.20
2022-12-25T19:46:36.614Z,52.40
2022-12-25T19:49:05.308Z,50.20
2022-12-25T19:51:44.672Z,57.60
2022-12-25T19:54:20.748Z,52.00
2022-12-25T19:56:49.397Z,42.30
2022-12-25T19:59:17.385Z,53.90
2022-12-25T20:01:45.645Z,49.30
2022-12-25T20:04:15.346Z,39.10
2022-12-25T20:06:44.437Z,31.30
2022-12-25T20:09:21.485Z,41.40
2022-12-25T20:11:49.979Z,47.70
2022-12-25T20:14:18.394Z,48.50
2022-12-25T20:16:47.079Z,44.00
2022-12-25T20:19:15.770Z,44.40
2022-12-25T20:21:43.869Z,43.60
2022-12-25T20:24:12.128Z,31.00
2022-12-25T20:26:40.152Z,42.90
2022-12-25T20:29:08.274Z,42.50
2022-12-25T20:31:36.532Z,43.70
2022-12-25T20:34:08.926Z,39.70
2022-12-25T20:36:38.256Z,32.90
2022-12-25T20:39:10.247Z,36.70
2022-12-25T20:41:39.891Z,38.90
2022-12-25T20:44:10.503Z,47.60
2022-12-25T20:46:38.831Z,45.50
2022-12-25T20:49:06.928Z,47.30
2022-12-25T20:51:35.130Z,42.60
2022-12-25T20:54:08.506Z,42.90
2022-12-25T20:56:36.957Z,35.30
2022-12-25T20:59:04.779Z,48.10
2022-12-25T21:01:32.723Z,37.50
2022-12-25T21:04:00.722Z,44.40
2022-12-25T21:06:28.607Z,41.90
2022-12-25T21:08:56.534Z,41.80
2022-12-25T21:11:24.481Z,49.10
2022-12-25T21:13:52.645Z,48.40
2022-12-25T21:16:22.981Z,52.20
2022-12-25T21:18:53.679Z,45.00
2022-12-25T21:21:22.851Z,48.30
2022-12-25T21:23:51.187Z,38.60
2022-12-25T21:26:23.441Z,46.30
2022-12-25T21:28:55.786Z,24.80
2022-12-25T21:31:25.711Z,45.00
2022-12-25T21:33:55.919Z,51.00
2022-12-25T21:36:31.022Z,51.00
2022-12-25T21:39:03.281Z,50.40
2022-12-25T21:41:34.308Z,46.30
2022-12-25T21:44:02.413Z,31.50
2022-12-25T21:46:31.009Z,47.80
2022-12-25T21:48:59.973Z,45.70
2022-12-25T21:51:50.170Z,44.80
2022-12-25T21:54:21.108Z,47.00
2022-12-25T21:56:50.431Z,33.00
2022-12-25T21:59:22.036Z,45.90
2022-12-25T22:01:52.056Z,49.10
2022-12-25T22:04:23.457Z,51.90
2022-12-25T22:07:10.786Z,49.00
2022-12-25T22:09:38.989Z,53.10
2022-12-25T22:12:32.110Z,52.10
2022-12-25T22:15:09.928Z,41.00
2022-12-25T22:18:01.785Z,49.00
2022-12-25T22:20:36.089Z,39.80
2022-12-25T22:23:05.258Z,51.60
2022-12-25T22:25:33.262Z,48.50
2022-12-25T22:28:01.216Z,38.70
2022-12-25T22:30:29.597Z,48.00
2022-12-25T22:32:58.402Z,44.60
2022-12-25T22:35:26.542Z,51.30
2022-12-25T22:37:54.885Z,50.60
2022-12-25T22:40:22.850Z,56.40
2022-12-25T22:42:55.542Z,53.00
2022-12-25T22:45:24.344Z,55.40
2022-12-25T22:47:52.273Z,38.60
2022-12-25T22:50:20.388Z,54.30
2022-12-25T22:52:48.243Z,53.90
2022-12-25T22:55:18.612Z,26.40
2022-12-25T22:57:46.864Z,49.80
2022-12-25T23:00:14.869Z,45.60
2022-12-25T23:02:42.921Z,44.10
2022-12-25T23:05:11.203Z,51.90
2022-12-25T23:07:39.084Z,48.00
2022-12-25T23:10:08.258Z,52.80
2022-12-25T23:12:54.922Z,42.30
2022-12-25T23:15:23.015Z,47.30
2022-12-25T23:18:09.880Z,43.00
2022-12-25T23:20:56.788Z,49.00
2022-12-25T23:23:43.342Z,44.10
2022-12-25T23:26:12.948Z,38.50
2022-12-25T23:29:01.856Z,46.00
2022-12-25T23:31:35.759Z,50.10
2022-12-25T23:34:06.015Z,44.00
2022-12-25T23:36:34.773Z,47.20
2022-12-25T23:39:09.651Z,50.30
2022-12-25T23:41:40.546Z,32.40
2022-12-25T23:44:11.252Z,46.70
2022-12-25T23:46:40.399Z,48.70
2022-12-25T23:49:10.455Z,53.50
2022-12-25T23:51:45.278Z,39.30
2022-12-25T23:54:18.267Z,43.30
2022-12-25T23:56:46.578Z,45.90
2022-12-25T23:59:15.257Z,45.60
